Time;durP1;ratioP1;P1;durP2;ratioP2;P2;SDS_P1;SDS_P2;PMS_P1;PMS_P2;Temp;Humidity;BMP_temperature;BMP_pressure;BME280_temperature;BME280_humidity;BME280_pressure;Samples;Min_cycle;Max_cycle;Signal;HPM_P1;HPM_P2
2022/09/08 00:01:00;;;;;;;;;;;26.30;49.50;25.20;100581.00;;;;5097846;27;19922;-67
2022/09/08 00:03:46;;;;;;;;;;;26.30;49.40;25.20;100586.00;;;;5083001;28;20008;-67
2022/09/08 00:06:32;;;;;;;;;;;26.30;49.40;25.20;100578.00;;;;5095297;28;20009;-67
2022/09/08 00:09:18;;;;;;;;;;;26.30;49.40;25.20;100583.00;;;;5093920;28;19929;-67
2022/09/08 00:12:04;;;;;;;;;;;26.20;49.40;25.20;100574.00;;;;5099540;28;19922;-67
2022/09/08 00:14:51;;;;;;;;;;;26.30;49.50;25.20;100559.00;;;;5079946;28;19959;-66
2022/09/08 00:17:37;;;;;;;;;;;26.20;49.40;25.20;100551.00;;;;5083799;28;20416;-67
2022/09/08 00:20:23;;;;;;;;;;;26.30;49.50;25.20;100551.00;;;;5091324;28;20045;-67
2022/09/08 00:23:09;;;;;;;;;;;26.20;49.40;25.10;100551.00;;;;5081558;28;19912;-67
2022/09/08 00:25:55;;;;;;;;;;;26.30;49.50;25.10;100548.00;;;;5097968;28;19916;-67
2022/09/08 00:28:41;;;;;;;;;;;26.30;49.50;25.10;100549.00;;;;5096153;28;19919;-67
2022/09/08 00:31:27;;;;;;;;;;;26.20;49.40;25.10;100546.00;;;;5091989;28;19916;-67
2022/09/08 00:34:13;;;;;;;;;;;26.30;49.50;25.10;100551.00;;;;5096966;28;20227;-67
2022/09/08 00:37:00;;;;;;;;;;;26.20;49.50;25.10;100547.00;;;;5098691;28;20260;-66
2022/09/08 00:39:46;;;;;;;;;;;26.20;49.40;25.10;100534.00;;;;5103272;28;20011;-66
2022/09/08 00:42:32;;;;;;;;;;;26.20;50.10;25.10;100541.00;;;;5096526;28;19985;-67
2022/09/08 00:45:19;;;;;;;;;;;26.20;49.40;25.10;100525.00;;;;5097583;27;20172;-67
2022/09/08 00:48:06;;;;;;;;;;;26.20;49.40;25.10;100523.00;;;;5100226;27;19963;-67
2022/09/08 00:50:53;;;;;;;;;;;26.20;49.40;25.10;100518.00;;;;5074356;28;19939;-67
2022/09/08 00:53:39;;;;;;;;;;;26.20;49.40;25.10;100504.00;;;;5102916;27;19919;-66
2022/09/08 00:56:25;;;;;;;;;;;26.20;49.40;25.10;100504.00;;;;5098668;28;19919;-67
2022/09/08 00:59:12;;;;;;;;;;;26.20;49.40;25.10;100495.00;;;;5101618;27;20816;-66
2022/09/08 01:01:59;;;;;;;;;;;26.20;49.40;25.10;100499.00;;;;5068413;28;19911;-67
2022/09/08 01:04:45;;;;;;;;;;;26.10;49.30;25.10;100506.00;;;;5094802;28;19911;-67
2022/09/08 01:14:04;;;;;;;;;;;26.20;49.40;25.00;100503.00;;;;5106384;27;19923;-67
2022/09/08 01:16:50;;;;;;;;;;;26.20;49.40;25.00;100485.00;;;;5104877;27;19919;-67
2022/09/08 01:19:36;;;;;;;;;;;26.10;49.30;25.00;100493.00;;;;5095350;28;19916;-67
2022/09/08 01:22:22;;;;;;;;;;;26.10;49.30;25.00;100484.00;;;;5104699;27;20253;-67
2022/09/08 01:25:47;;;;;;;;;;;26.10;49.30;25.00;100482.00;;;;5097211;27;19989;-67
2022/09/08 01:28:42;;;;;;;;;;;26.10;49.30;25.00;100479.00;;;;5095777;28;19922;-67
2022/09/08 01:31:32;;;;;;;;;;;26.10;49.30;25.00;100472.00;;;;5093781;27;20287;-67
2022/09/08 01:34:19;;;;;;;;;;;26.10;49.30;25.00;100466.00;;;;5086087;28;19919;-67
2022/09/08 01:37:05;;;;;;;;;;;26.10;49.30;25.00;100469.00;;;;5089537;27;19916;-67
2022/09/08 01:39:51;;;;;;;;;;;26.10;49.30;25.00;100470.00;;;;5087339;28;19919;-67
2022/09/08 01:42:37;;;;;;;;;;;26.10;49.30;25.00;100463.00;;;;5101124;27;20551;-67
2022/09/08 01:45:23;;;;;;;;;;;26.10;49.30;25.00;100466.00;;;;5102197;27;20450;-67
2022/09/08 01:48:09;;;;;;;;;;;26.10;49.30;25.00;100471.00;;;;5100708;27;20022;-67
2022/09/08 01:51:03;;;;;;;;;;;26.10;49.30;25.00;100470.00;;;;5092395;28;20002;-67
2022/09/08 01:53:49;;;;;;;;;;;26.10;49.30;25.00;100467.00;;;;5108911;27;20367;-67
2022/09/08 01:56:35;;;;;;;;;;;26.10;49.30;25.00;100468.00;;;;5085096;28;20357;-67
2022/09/08 01:59:21;;;;;;;;;;;26.10;49.30;25.00;100465.00;;;;5106656;27;20270;-67
2022/09/08 02:02:07;;;;;;;;;;;26.10;49.30;25.00;100465.00;;;;5098173;27;20605;-67
2022/09/08 02:04:53;;;;;;;;;;;26.10;49.90;25.00;100462.00;;;;5104096;27;19923;-67
2022/09/08 02:07:39;;;;;;;;;;;26.10;49.20;25.00;100459.00;;;;5105206;27;19911;-67
2022/09/08 02:10:25;;;;;;;;;;;26.10;49.20;25.00;100460.00;;;;5097871;27;19970;-67
2022/09/08 02:13:11;;;;;;;;;;;26.10;49.20;25.00;100465.00;;;;5115361;27;20209;-67
2022/09/08 02:16:02;;;;;;;;;;;26.10;49.30;25.00;100462.00;;;;5097020;28;19912;-66
2022/09/08 02:18:48;;;;;;;;;;;26.10;49.20;25.00;100455.00;;;;5090765;27;20575;-66
2022/09/08 02:21:34;;;;;;;;;;;26.10;49.20;25.00;100450.00;;;;5115369;27;19911;-67
2022/09/08 02:24:20;;;;;;;;;;;26.10;49.20;25.00;100447.00;;;;5102045;27;19916;-67
2022/09/08 02:27:06;;;;;;;;;;;26.10;49.20;25.00;100441.00;;;;5102217;27;19942;-67
2022/09/08 02:29:52;;;;;;;;;;;26.10;49.20;25.00;100441.00;;;;5091172;28;19968;-66
2022/09/08 02:32:39;;;;;;;;;;;26.00;49.20;25.00;100435.00;;;;5087784;27;19916;-66
2022/09/08 02:35:25;;;;;;;;;;;26.10;49.30;25.00;100431.00;;;;5096736;27;20233;-67
2022/09/08 02:38:11;;;;;;;;;;;26.10;49.20;25.00;100432.00;;;;5105119;27;19922;-67
2022/09/08 02:40:57;;;;;;;;;;;26.00;49.20;25.00;100424.00;;;;5102876;27;19912;-67
2022/09/08 02:43:43;;;;;;;;;;;26.00;49.20;25.00;100434.00;;;;5095566;27;19919;-67
2022/09/08 02:46:29;;;;;;;;;;;26.10;49.30;25.00;100438.00;;;;5103852;27;20525;-67
2022/09/08 02:49:15;;;;;;;;;;;26.20;49.40;25.00;100429.00;;;;5104724;27;20426;-67
2022/09/08 02:52:02;;;;;;;;;;;26.10;49.40;25.00;100435.00;;;;5097761;27;19916;-66
2022/09/08 02:54:47;;;;;;;;;;;26.10;49.20;25.00;100426.00;;;;5100056;27;20380;-67
2022/09/08 02:57:34;;;;;;;;;;;26.10;49.20;25.00;100410.00;;;;5093366;27;19912;-67
2022/09/08 03:00:20;;;;;;;;;;;26.10;49.30;25.00;100414.00;;;;5103143;27;20009;-67
2022/09/08 03:03:06;;;;;;;;;;;26.10;49.20;25.00;100414.00;;;;5100429;27;19912;-67
2022/09/08 03:05:52;;;;;;;;;;;26.10;49.30;24.90;100409.00;;;;5098147;27;20234;-67
2022/09/08 03:08:38;;;;;;;;;;;26.10;49.30;25.00;100407.00;;;;5097094;27;20369;-67
2022/09/08 03:11:24;;;;;;;;;;;26.10;49.30;25.00;100404.00;;;;5096915;27;19919;-66
2022/09/08 03:14:10;;;;;;;;;;;26.10;49.30;24.90;100401.00;;;;5100342;27;19916;-67
2022/09/08 03:16:56;;;;;;;;;;;26.10;49.30;24.90;100399.00;;;;5094827;27;20362;-67
2022/09/08 03:19:42;;;;;;;;;;;26.10;49.30;25.00;100396.00;;;;5096583;27;19923;-67
2022/09/08 03:22:28;;;;;;;;;;;26.10;49.30;24.90;100386.00;;;;5098020;27;19926;-67
2022/09/08 03:25:14;;;;;;;;;;;26.10;49.30;24.90;100379.00;;;;5102431;27;20255;-67
2022/09/08 03:28:00;;;;;;;;;;;26.10;49.30;24.90;100387.00;;;;5096530;27;20003;-67
2022/09/08 03:30:46;;;;;;;;;;;26.10;49.20;24.90;100380.00;;;;5099489;27;19911;-67
2022/09/08 03:33:32;;;;;;;;;;;26.10;49.20;24.90;100378.00;;;;5095270;27;19916;-67
2022/09/08 03:36:20;;;;;;;;;;;26.10;49.20;24.90;100369.00;;;;5100903;27;19916;-67
2022/09/08 03:39:05;;;;;;;;;;;26.10;49.30;24.90;100373.00;;;;5086587;28;19912;-67
2022/09/08 03:41:51;;;;;;;;;;;26.10;49.20;24.90;100364.00;;;;5096166;27;19919;-67
2022/09/08 03:44:37;;;;;;;;;;;26.00;49.10;24.90;100366.00;;;;5100894;27;19919;-66
2022/09/08 03:47:24;;;;;;;;;;;26.00;49.10;24.90;100356.00;;;;5097694;28;19964;-67
2022/09/08 03:50:11;;;;;;;;;;;26.10;49.20;24.90;100350.00;;;;5097216;27;19970;-67
2022/09/08 03:52:57;;;;;;;;;;;26.10;49.20;24.90;100355.00;;;;5098646;27;19916;-66
2022/09/08 03:55:43;;;;;;;;;;;26.10;49.20;24.90;100353.00;;;;5094714;27;19912;-66
2022/09/08 03:58:29;;;;;;;;;;;26.10;49.20;24.90;100344.00;;;;5098443;28;19951;-66
2022/09/08 04:01:16;;;;;;;;;;;26.10;49.20;24.90;100350.00;;;;5104248;28;19942;-66
2022/09/08 04:04:02;;;;;;;;;;;26.00;49.10;24.90;100349.00;;;;5085730;28;20337;-67
2022/09/08 04:06:49;;;;;;;;;;;26.10;49.20;24.90;100342.00;;;;5085222;28;20010;-67
2022/09/08 04:09:36;;;;;;;;;;;26.10;49.20;24.90;100331.00;;;;5079770;28;19912;-67
2022/09/08 04:12:24;;;;;;;;;;;26.10;49.20;24.90;100330.00;;;;5097634;28;19915;-67
2022/09/08 04:15:09;;;;;;;;;;;26.00;49.10;24.90;100318.00;;;;5091739;28;19915;-67
2022/09/08 04:17:55;;;;;;;;;;;26.10;49.10;24.90;100331.00;;;;5102689;28;19965;-67
2022/09/08 04:20:41;;;;;;;;;;;26.00;49.10;24.90;100322.00;;;;5098656;28;20348;-67
2022/09/08 04:23:27;;;;;;;;;;;26.10;49.20;24.90;100323.00;;;;5098788;28;20387;-67
2022/09/08 04:26:13;;;;;;;;;;;26.10;49.10;24.90;100320.00;;;;5098897;28;20385;-67
2022/09/08 04:29:00;;;;;;;;;;;26.10;49.10;24.90;100319.00;;;;5094919;28;20374;-67
2022/09/08 04:31:47;;;;;;;;;;;26.10;49.80;24.90;100318.00;;;;5094290;28;19916;-67
2022/09/08 04:34:36;;;;;;;;;;;26.00;49.00;24.90;100315.00;;;;5090237;28;20272;-67
2022/09/08 04:37:22;;;;;;;;;;;26.00;49.10;24.90;100317.00;;;;5099394;27;19915;-67
2022/09/08 04:40:08;;;;;;;;;;;26.10;49.10;24.90;100315.00;;;;5104390;28;19916;-67
2022/09/08 04:42:54;;;;;;;;;;;26.10;49.20;24.90;100330.00;;;;5095993;28;19912;-67
2022/09/08 04:45:40;;;;;;;;;;;26.10;49.10;24.90;100326.00;;;;5090120;28;19923;-67
2022/09/08 04:48:28;;;;;;;;;;;26.10;49.10;24.90;100335.00;;;;5100019;28;19923;-67
2022/09/08 04:51:16;;;;;;;;;;;26.10;49.10;24.90;100335.00;;;;5090869;28;19915;-67
2022/09/08 04:54:02;;;;;;;;;;;26.10;49.10;24.90;100316.00;;;;5094944;28;19958;-67
2022/09/08 04:56:49;;;;;;;;;;;26.10;49.10;24.90;100318.00;;;;5098051;28;19919;-67
2022/09/08 04:59:35;;;;;;;;;;;26.10;49.10;24.90;100313.00;;;;5097639;28;19942;-67
2022/09/08 05:02:21;;;;;;;;;;;26.20;49.20;24.90;100319.00;;;;5083422;28;19919;-67
2022/09/08 05:05:07;;;;;;;;;;;26.10;49.10;25.00;100334.00;;;;5095510;28;19912;-67
2022/09/08 05:07:53;;;;;;;;;;;26.10;49.10;24.90;100319.00;;;;5094786;28;19915;-67
2022/09/08 05:10:39;;;;;;;;;;;26.10;49.10;25.00;100332.00;;;;5095104;28;19926;-67
2022/09/08 05:13:25;;;;;;;;;;;26.10;49.10;24.90;100335.00;;;;5101939;28;19926;-67
2022/09/08 05:16:15;;;;;;;;;;;26.20;49.20;25.00;100332.00;;;;5081613;28;19911;-67
2022/09/08 05:19:03;;;;;;;;;;;26.10;49.10;25.00;100332.00;;;;5093478;28;19912;-67
2022/09/08 05:21:49;;;;;;;;;;;26.10;49.10;25.00;100344.00;;;;5087950;28;19939;-67
2022/09/08 05:24:35;;;;;;;;;;;26.20;49.20;25.00;100359.00;;;;5097705;28;20269;-67
2022/09/08 05:27:21;;;;;;;;;;;26.20;49.20;25.00;100368.00;;;;5105186;27;20376;-67
2022/09/08 05:30:07;;;;;;;;;;;26.10;49.10;25.00;100360.00;;;;5106242;27;19912;-67
2022/09/08 05:32:53;;;;;;;;;;;26.10;49.10;25.00;100359.00;;;;5107602;27;19923;-67
2022/09/08 05:35:39;;;;;;;;;;;26.10;49.10;24.90;100371.00;;;;5102274;27;19923;-67
2022/09/08 05:38:26;;;;;;;;;;;26.10;49.10;25.00;100367.00;;;;5099284;27;19958;-67
2022/09/08 05:41:12;;;;;;;;;;;26.10;49.10;25.00;100368.00;;;;5103164;27;19938;-67
2022/09/08 05:43:58;;;;;;;;;;;26.10;49.10;25.00;100375.00;;;;5097113;27;19911;-67
2022/09/08 05:46:45;;;;;;;;;;;26.20;49.10;25.00;100373.00;;;;5101475;27;20006;-67
2022/09/08 05:49:31;;;;;;;;;;;26.10;49.10;25.00;100373.00;;;;5105603;27;20361;-67
2022/09/08 05:52:17;;;;;;;;;;;26.20;49.10;25.00;100375.00;;;;5098857;27;19920;-67
2022/09/08 05:55:04;;;;;;;;;;;26.20;49.10;25.00;100375.00;;;;5098354;27;19922;-66
2022/09/08 05:57:50;;;;;;;;;;;26.20;49.10;25.00;100387.00;;;;5092205;28;19959;-67
2022/09/08 06:00:37;;;;;;;;;;;26.20;49.10;25.00;100381.00;;;;5096992;27;19911;-67
2022/09/08 06:03:23;;;;;;;;;;;26.10;49.00;25.00;100380.00;;;;5098456;28;19966;-67
2022/09/08 06:06:10;;;;;;;;;;;26.30;49.20;25.00;100382.00;;;;5086377;27;19916;-66
2022/09/08 06:08:56;;;;;;;;;;;26.20;49.10;25.00;100381.00;;;;5101459;27;19916;-67
2022/09/08 06:11:42;;;;;;;;;;;26.20;49.10;25.00;100382.00;;;;5093917;27;19970;-67
2022/09/08 06:14:28;;;;;;;;;;;26.20;49.10;25.00;100387.00;;;;5099090;27;20360;-67
2022/09/08 06:17:15;;;;;;;;;;;26.10;49.10;25.00;100395.00;;;;5100052;27;19912;-67
2022/09/08 06:20:01;;;;;;;;;;;26.20;49.10;25.00;100394.00;;;;5098132;27;20025;-67
2022/09/08 06:22:47;;;;;;;;;;;26.20;49.10;25.00;100389.00;;;;5092767;28;19934;-67
2022/09/08 06:25:38;;;;;;;;;;;26.10;49.10;25.00;100401.00;;;;5102299;27;20293;-67
2022/09/08 06:28:33;;;;;;;;;;;26.30;49.30;25.00;100399.00;;;;5107996;27;19950;-67
2022/09/08 06:31:27;;;;;;;;;;;26.20;49.10;25.00;100399.00;;;;5080600;28;20432;-67
2022/09/08 06:34:26;;;;;;;;;;;26.10;49.10;25.00;100404.00;;;;5085121;28;19923;-67
2022/09/08 06:37:19;;;;;;;;;;;26.20;49.20;25.00;100395.00;;;;5077969;27;19920;-67
2022/09/08 06:40:40;;;;;;;;;;;26.20;49.20;25.00;100398.00;;;;5085172;27;19994;-67
2022/09/08 06:43:44;;;;;;;;;;;26.20;49.20;25.00;100396.00;;;;5079057;28;19915;-67
2022/09/08 06:46:36;;;;;;;;;;;26.10;49.10;24.90;100401.00;;;;5075227;27;20383;-67
2022/09/08 06:49:26;;;;;;;;;;;26.10;49.10;24.90;100384.00;;;;5096885;27;19966;-67
2022/09/08 06:52:24;;;;;;;;;;;26.10;49.10;25.00;100367.00;;;;5088609;27;19916;-67
2022/09/08 06:55:38;;;;;;;;;;;26.10;49.20;25.00;100380.00;;;;5100889;27;19912;-67
2022/09/08 06:58:31;;;;;;;;;;;26.10;49.20;24.90;100378.00;;;;5083748;27;19916;-67
2022/09/08 07:01:24;;;;;;;;;;;26.10;49.20;24.90;100366.00;;;;5087772;27;19998;-67
2022/09/08 07:04:29;;;;;;;;;;;26.10;49.20;24.90;100361.00;;;;5113614;27;19933;-67
2022/09/08 07:07:31;;;;;;;;;;;26.10;49.20;24.90;100374.00;;;;5099840;27;19946;-67
2022/09/08 07:10:27;;;;;;;;;;;26.20;49.30;24.90;100384.00;;;;5097804;27;20391;-67
2022/09/08 07:13:32;;;;;;;;;;;26.10;49.30;24.90;100388.00;;;;5094531;27;19920;-67
2022/09/08 07:16:40;;;;;;;;;;;26.10;49.30;24.90;100386.00;;;;5106888;27;19958;-67
2022/09/08 07:19:45;;;;;;;;;;;26.10;49.30;24.90;100379.00;;;;5107731;27;19938;-66
2022/09/08 07:22:52;;;;;;;;;;;26.10;49.30;24.90;100386.00;;;;5099158;27;19912;-67
2022/09/08 07:25:48;;;;;;;;;;;26.10;49.30;24.90;100382.00;;;;5098109;27;19973;-67
2022/09/08 07:28:40;;;;;;;;;;;26.10;49.30;24.90;100386.00;;;;5088839;27;19962;-67
2022/09/08 07:31:26;;;;;;;;;;;26.10;49.30;24.90;100377.00;;;;5098165;27;19929;-67
2022/09/08 07:34:16;;;;;;;;;;;26.10;49.30;24.90;100385.00;;;;5096493;27;20035;-67
2022/09/08 07:37:21;;;;;;;;;;;26.10;49.40;24.90;100373.00;;;;5083991;28;19915;-67
2022/09/08 07:40:21;;;;;;;;;;;26.10;49.40;24.90;100372.00;;;;5101646;27;19915;-67
2022/09/08 07:43:11;;;;;;;;;;;26.10;49.40;24.90;100366.00;;;;5085984;27;19939;-66
2022/09/08 07:46:19;;;;;;;;;;;26.10;49.40;24.90;100370.00;;;;5085171;28;19912;-67
2022/09/08 07:49:10;;;;;;;;;;;26.10;49.50;24.90;100381.00;;;;5075582;27;20003;-67
2022/09/08 07:52:03;;;;;;;;;;;26.10;49.40;24.90;100388.00;;;;5087973;27;19919;-67
2022/09/08 07:55:17;;;;;;;;;;;26.10;49.50;24.90;100389.00;;;;5094958;27;20345;-67
2022/09/08 07:59:08;;;;;;;;;;;26.00;49.40;24.90;100388.00;;;;5057806;28;19939;-67
2022/09/08 08:02:10;;;;;;;;;;;26.10;49.50;24.90;100392.00;;;;5052310;28;20205;-67
2022/09/08 08:05:09;;;;;;;;;;;26.10;49.50;24.90;100384.00;;;;5094936;28;19919;-67
2022/09/08 08:07:59;;;;;;;;;;;26.10;49.50;24.90;100391.00;;;;5085015;28;19912;-66
2022/09/08 08:10:54;;;;;;;;;;;26.00;49.50;24.90;100408.00;;;;5091767;28;20364;-67
2022/09/08 08:14:01;;;;;;;;;;;26.00;49.50;24.90;100406.00;;;;5098336;28;19920;-67
2022/09/08 08:17:15;;;;;;;;;;;26.10;49.60;24.90;100403.00;;;;5103313;28;19938;-66
2022/09/08 08:20:10;;;;;;;;;;;26.10;49.60;24.90;100402.00;;;;5095201;28;19947;-67
2022/09/08 08:23:09;;;;;;;;;;;26.00;49.50;24.80;100412.00;;;;5078673;28;19912;-67
2022/09/08 08:26:15;;;;;;;;;;;26.10;49.70;24.90;100411.00;;;;5100865;28;19912;-67
2022/09/08 08:29:24;;;;;;;;;;;26.00;49.60;24.90;100413.00;;;;5096937;28;19954;-67
2022/09/08 08:32:11;;;;;;;;;;;26.00;49.60;24.80;100406.00;;;;5086269;28;19916;-67
2022/09/08 08:35:14;;;;;;;;;;;26.10;49.70;24.90;100414.00;;;;5093255;28;19923;-67
2022/09/08 08:38:00;;;;;;;;;;;26.00;49.70;24.90;100407.00;;;;5094319;28;19919;-67
2022/09/08 08:40:59;;;;;;;;;;;26.00;49.60;24.90;100414.00;;;;5070455;28;19916;-67
2022/09/08 08:44:08;;;;;;;;;;;26.00;49.70;24.80;100426.00;;;;5098951;28;19919;-67
2022/09/08 08:47:09;;;;;;;;;;;26.00;49.70;24.80;100441.00;;;;5099664;28;19923;-67
2022/09/08 08:50:20;;;;;;;;;;;26.00;49.70;24.80;100438.00;;;;5098138;28;19922;-67
2022/09/08 08:53:15;;;;;;;;;;;26.00;49.70;24.80;100451.00;;;;5080791;28;19926;-67
2022/09/08 08:56:16;;;;;;;;;;;26.00;49.70;24.80;100446.00;;;;5105889;27;19911;-67
2022/09/08 08:59:49;;;;;;;;;;;26.00;49.70;24.80;100451.00;;;;5110383;27;20361;-67
2022/09/08 09:02:38;;;;;;;;;;;26.00;49.70;24.80;100440.00;;;;5069792;28;19937;-67
2022/09/08 09:05:35;;;;;;;;;;;26.00;49.80;24.80;100449.00;;;;5098149;27;20384;-67
2022/09/08 09:08:56;;;;;;;;;;;26.00;49.80;24.80;100450.00;;;;5083680;28;20038;-67
2022/09/08 09:12:06;;;;;;;;;;;26.00;49.80;24.80;100446.00;;;;5095096;28;19912;-67
2022/09/08 09:15:09;;;;;;;;;;;26.00;49.80;24.80;100450.00;;;;5086855;27;19920;-67
2022/09/08 09:18:26;;;;;;;;;;;26.00;49.80;24.80;100454.00;;;;5094440;27;20384;-67
2022/09/08 09:21:36;;;;;;;;;;;25.90;49.80;24.80;100454.00;;;;5098946;27;20321;-67
2022/09/08 09:24:45;;;;;;;;;;;26.00;49.90;24.80;100444.00;;;;5103239;28;19912;-67
2022/09/08 09:27:40;;;;;;;;;;;25.90;49.80;24.80;100449.00;;;;5074203;28;19916;-67
2022/09/08 09:30:34;;;;;;;;;;;26.00;49.90;24.80;100442.00;;;;5097104;27;20357;-67
2022/09/08 09:33:37;;;;;;;;;;;25.90;49.80;24.80;100433.00;;;;5084189;28;19953;-67
2022/09/08 09:36:54;;;;;;;;;;;25.90;49.80;24.80;100412.00;;;;5099695;27;20262;-67
2022/09/08 09:40:13;;;;;;;;;;;26.00;49.90;24.80;100407.00;;;;5086250;28;20325;-67
2022/09/08 09:43:09;;;;;;;;;;;25.90;49.90;24.80;100414.00;;;;5097823;28;19969;-67
2022/09/08 09:46:30;;;;;;;;;;;25.90;49.90;24.80;100406.00;;;;5095548;28;20380;-67
2022/09/08 09:49:38;;;;;;;;;;;25.90;49.90;24.80;100418.00;;;;5086778;27;19916;-67
2022/09/08 09:52:40;;;;;;;;;;;25.90;49.90;24.80;100416.00;;;;5093271;28;19961;-67
2022/09/08 09:55:38;;;;;;;;;;;25.90;49.90;24.80;100416.00;;;;5084735;28;19917;-67
2022/09/08 09:58:41;;;;;;;;;;;25.90;50.00;24.80;100419.00;;;;5100059;27;20341;-67
2022/09/08 10:02:05;;;;;;;;;;;25.90;50.00;24.80;100409.00;;;;5092959;27;19980;-67
2022/09/08 10:04:59;;;;;;;;;;;25.90;50.00;24.80;100412.00;;;;5100519;28;19957;-66
2022/09/08 10:08:00;;;;;;;;;;;25.90;50.00;24.80;100409.00;;;;5094101;27;19922;-66
2022/09/08 10:11:18;;;;;;;;;;;25.90;50.00;24.80;100414.00;;;;5094811;27;19919;-66
2022/09/08 10:14:36;;;;;;;;;;;25.90;50.00;24.80;100410.00;;;;5088045;27;19923;-66
2022/09/08 10:17:28;;;;;;;;;;;25.90;50.00;24.80;100408.00;;;;5101595;27;20010;-66
2022/09/08 10:20:51;;;;;;;;;;;25.90;50.00;24.80;100405.00;;;;5097702;27;19921;-66
2022/09/08 10:23:56;;;;;;;;;;;25.90;50.00;24.80;100407.00;;;;5104943;27;19957;-66
2022/09/08 10:27:00;;;;;;;;;;;25.90;50.00;24.80;100405.00;;;;5107848;27;19911;-66
2022/09/08 10:30:13;;;;;;;;;;;25.90;50.00;24.80;100408.00;;;;5095935;27;20373;-66
2022/09/08 10:33:25;;;;;;;;;;;25.90;50.00;24.80;100404.00;;;;5100979;27;20649;-66
2022/09/08 10:36:12;;;;;;;;;;;25.90;50.60;24.70;100402.00;;;;5086962;28;19916;-67
2022/09/08 10:39:36;;;;;;;;;;;25.80;49.90;24.70;100400.00;;;;5067637;28;19955;-67
2022/09/08 10:42:34;;;;;;;;;;;25.90;50.00;24.70;100408.00;;;;5100641;28;20403;-66
2022/09/08 10:45:57;;;;;;;;;;;25.90;50.00;24.70;100404.00;;;;5097905;28;20268;-66
2022/09/08 10:49:18;;;;;;;;;;;25.90;50.00;24.70;100401.00;;;;5097608;27;19911;-67
2022/09/08 10:52:26;;;;;;;;;;;25.90;50.00;24.70;100402.00;;;;5078457;28;19912;-67
2022/09/08 10:55:42;;;;;;;;;;;25.90;50.00;24.70;100399.00;;;;5083423;28;19986;-67
2022/09/08 10:58:51;;;;;;;;;;;25.80;49.90;24.70;100400.00;;;;5090549;28;19923;-67
2022/09/08 11:01:48;;;;;;;;;;;25.90;50.00;24.70;100404.00;;;;5093649;28;19924;-67
2022/09/08 11:04:40;;;;;;;;;;;25.80;49.90;24.70;100408.00;;;;5096644;28;19916;-67
2022/09/08 11:07:55;;;;;;;;;;;25.80;50.00;24.70;100405.00;;;;5100950;28;19912;-67
2022/09/08 11:10:51;;;;;;;;;;;25.80;50.00;24.70;100411.00;;;;5091803;28;19942;-67
2022/09/08 11:14:15;;;;;;;;;;;25.90;50.00;24.70;100416.00;;;;5095354;27;20333;-67
2022/09/08 11:17:23;;;;;;;;;;;25.80;50.00;24.70;100416.00;;;;5089771;27;19911;-66
2022/09/08 11:20:28;;;;;;;;;;;25.80;50.00;24.70;100410.00;;;;5088319;27;20171;-67
2022/09/08 11:23:32;;;;;;;;;;;25.90;50.00;24.70;100415.00;;;;5109097;27;19922;-67
2022/09/08 11:26:46;;;;;;;;;;;25.80;50.00;24.70;100429.00;;;;5095131;27;19988;-67
2022/09/08 11:29:36;;;;;;;;;;;25.90;50.00;24.70;100428.00;;;;5111229;27;20368;-66
2022/09/08 11:32:29;;;;;;;;;;;25.80;50.00;24.70;100427.00;;;;5108102;27;20009;-67
2022/09/08 11:35:24;;;;;;;;;;;25.80;50.00;24.70;100424.00;;;;5079237;28;20366;-67
2022/09/08 11:38:15;;;;;;;;;;;25.80;50.00;24.70;100430.00;;;;5100116;27;20273;-67
2022/09/08 11:41:22;;;;;;;;;;;25.80;50.00;24.70;100425.00;;;;5094030;28;19998;-66
2022/09/08 11:44:15;;;;;;;;;;;25.80;50.00;24.70;100425.00;;;;5083161;28;19916;-67
2022/09/08 11:47:10;;;;;;;;;;;25.90;50.10;24.70;100427.00;;;;5075960;28;20108;-67
2022/09/08 11:50:05;;;;;;;;;;;25.80;50.00;24.70;100425.00;;;;5099922;28;19911;-67
2022/09/08 11:53:19;;;;;;;;;;;25.80;50.00;24.70;100436.00;;;;5097418;28;19919;-67
2022/09/08 11:56:19;;;;;;;;;;;25.90;50.10;24.70;100436.00;;;;5098679;28;19922;-67
2022/09/08 11:59:20;;;;;;;;;;;25.90;50.10;24.70;100426.00;;;;5083666;28;19915;-67
2022/09/08 12:02:18;;;;;;;;;;;25.90;50.00;24.70;100419.00;;;;5102152;28;19912;-67
2022/09/08 12:05:13;;;;;;;;;;;25.90;50.00;24.70;100427.00;;;;5086306;28;19930;-66
2022/09/08 12:08:29;;;;;;;;;;;25.80;50.00;24.70;100419.00;;;;5107683;27;19916;-67
2022/09/08 12:11:32;;;;;;;;;;;25.90;50.10;24.70;100431.00;;;;5095859;28;19916;-67
2022/09/08 12:14:33;;;;;;;;;;;25.90;50.00;24.70;100428.00;;;;5077513;28;19919;-67
2022/09/08 12:17:32;;;;;;;;;;;25.80;50.00;24.70;100432.00;;;;5098952;28;20435;-67
2022/09/08 12:20:56;;;;;;;;;;;25.90;50.00;24.70;100421.00;;;;5095807;28;19916;-67
2022/09/08 12:24:08;;;;;;;;;;;25.90;50.10;24.70;100423.00;;;;5093956;28;19912;-67
2022/09/08 12:26:57;;;;;;;;;;;25.90;50.10;24.70;100425.00;;;;5085657;28;19919;-67
2022/09/08 12:30:08;;;;;;;;;;;25.90;50.10;24.70;100411.00;;;;5103705;27;19911;-67
2022/09/08 12:32:59;;;;;;;;;;;25.90;50.10;24.70;100413.00;;;;5104330;28;19920;-67
2022/09/08 12:36:05;;;;;;;;;;;25.90;50.00;24.70;100418.00;;;;5105256;28;19923;-67
2022/09/08 12:38:51;;;;;;;;;;;25.90;50.00;24.70;100414.00;;;;5089239;28;19911;-66
2022/09/08 12:42:01;;;;;;;;;;;25.90;50.00;24.70;100409.00;;;;5101016;28;20074;-67
2022/09/08 12:45:23;;;;;;;;;;;25.90;50.00;24.70;100399.00;;;;5088118;27;19959;-67
2022/09/08 12:48:18;;;;;;;;;;;25.90;50.00;24.70;100404.00;;;;5098928;27;19923;-67
2022/09/08 12:51:16;;;;;;;;;;;25.90;50.00;24.70;100400.00;;;;5104985;27;19935;-67
2022/09/08 12:54:47;;;;;;;;;;;26.00;50.10;24.80;100392.00;;;;5075870;28;19931;-67
2022/09/08 12:57:54;;;;;;;;;;;25.90;50.00;24.80;100398.00;;;;5037359;28;19912;-67
2022/09/08 13:00:42;;;;;;;;;;;26.00;50.00;24.80;100388.00;;;;5037421;28;20570;-67
2022/09/08 13:03:39;;;;;;;;;;;26.00;50.00;24.80;100389.00;;;;5084342;28;19916;-67
2022/09/08 13:06:49;;;;;;;;;;;26.00;50.00;24.80;100394.00;;;;5101152;27;19916;-67
2022/09/08 13:09:39;;;;;;;;;;;26.00;50.00;24.70;100394.00;;;;5102952;27;19943;-67
2022/09/08 13:12:35;;;;;;;;;;;26.10;50.10;24.70;100382.00;;;;5091527;27;19915;-67
2022/09/08 13:15:55;;;;;;;;;;;26.00;50.00;24.70;100389.00;;;;5085028;28;19943;-66
2022/09/08 13:19:06;;;;;;;;;;;26.00;50.00;24.70;100380.00;;;;5083968;27;20633;-66
2022/09/08 13:22:10;;;;;;;;;;;26.00;50.00;24.70;100376.00;;;;5087663;28;19959;-67
2022/09/08 13:24:59;;;;;;;;;;;26.00;50.00;24.70;100378.00;;;;5092883;28;19912;-66
2022/09/08 13:28:01;;;;;;;;;;;26.00;50.00;24.70;100376.00;;;;5084751;28;19919;-67
2022/09/08 13:31:10;;;;;;;;;;;26.00;50.00;24.70;100381.00;;;;5113020;27;19961;-67
2022/09/08 13:34:06;;;;;;;;;;;26.00;50.00;24.70;100374.00;;;;5086044;28;19919;-66
2022/09/08 13:37:13;;;;;;;;;;;26.00;50.00;24.70;100372.00;;;;5084039;28;19912;-68
2022/09/08 13:40:05;;;;;;;;;;;26.00;50.00;24.60;100368.00;;;;5095665;28;19927;-68
2022/09/08 13:43:06;;;;;;;;;;;26.00;50.00;24.60;100374.00;;;;5100490;28;19915;-68
2022/09/08 13:46:14;;;;;;;;;;;26.00;50.00;24.60;100377.00;;;;5092189;28;19912;-68
2022/09/08 13:49:07;;;;;;;;;;;26.00;49.90;24.60;100384.00;;;;5095628;28;19915;-66
2022/09/08 13:52:08;;;;;;;;;;;26.10;49.90;24.60;100376.00;;;;5099911;28;20341;-66
2022/09/08 13:55:25;;;;;;;;;;;26.00;49.80;24.60;100375.00;;;;5100399;28;19915;-66
2022/09/08 13:58:33;;;;;;;;;;;26.00;49.80;24.60;100377.00;;;;5064298;28;19912;-66
2022/09/08 14:01:28;;;;;;;;;;;26.00;49.70;24.60;100365.00;;;;5093614;28;20273;-67
2022/09/08 14:04:14;;;;;;;;;;;26.00;49.70;24.50;100371.00;;;;5094026;28;20050;-66
2022/09/08 14:07:05;;;;;;;;;;;26.00;49.70;24.50;100363.00;;;;5089920;28;20002;-66
2022/09/08 14:10:10;;;;;;;;;;;26.00;49.70;24.50;100370.00;;;;5099169;28;19938;-66
2022/09/08 14:13:14;;;;;;;;;;;25.90;49.60;24.50;100373.00;;;;5083239;28;19922;-66